sensor_id;sensor_type;location;lat;lon;timestamp;P1;durP1;ratioP1;P2;durP2;ratioP2
31808;SDS011;18379;48.208;-1.518;2023-04-03T00:03:53;63.37;;;57.97;;
31808;SDS011;18379;48.208;-1.518;2023-04-03T00:08:56;64.03;;;58.67;;
31808;SDS011;18379;48.208;-1.518;2023-04-03T00:14:03;63.17;;;57.53;;
31808;SDS011;18379;48.208;-1.518;2023-04-03T00:19:04;64.17;;;58.63;;
31808;SDS011;18379;48.208;-1.518;2023-04-03T00:24:05;66.80;;;60.73;;
31808;SDS011;18379;48.208;-1.518;2023-04-03T00:29:06;62.50;;;57.17;;
31808;SDS011;18379;48.208;-1.518;2023-04-03T00:34:07;63.37;;;57.23;;
31808;SDS011;18379;48.208;-1.518;2023-04-03T00:39:08;61.53;;;56.57;;
31808;SDS011;18379;48.208;-1.518;2023-04-03T00:44:22;62.50;;;57.63;;
31808;SDS011;18379;48.208;-1.518;2023-04-03T00:49:43;60.07;;;54.90;;
31808;SDS011;18379;48.208;-1.518;2023-04-03T00:54:45;59.70;;;54.67;;
31808;SDS011;18379;48.208;-1.518;2023-04-03T00:59:53;61.13;;;56.03;;
31808;SDS011;18379;48.208;-1.518;2023-04-03T01:04:57;62.47;;;56.63;;
31808;SDS011;18379;48.208;-1.518;2023-04-03T01:10:00;63.53;;;57.73;;
31808;SDS011;18379;48.208;-1.518;2023-04-03T01:15:06;61.97;;;56.43;;
31808;SDS011;18379;48.208;-1.518;2023-04-03T01:25:30;64.93;;;58.83;;
31808;SDS011;18379;48.208;-1.518;2023-04-03T01:30:32;64.00;;;58.27;;
31808;SDS011;18379;48.208;-1.518;2023-04-03T01:35:37;60.47;;;55.53;;
31808;SDS011;18379;48.208;-1.518;2023-04-03T01:40:37;60.27;;;55.13;;
31808;SDS011;18379;48.208;-1.518;2023-04-03T01:45:38;59.27;;;54.37;;
31808;SDS011;18379;48.208;-1.518;2023-04-03T01:50:39;60.03;;;55.27;;
31808;SDS011;18379;48.208;-1.518;2023-04-03T01:55:40;59.53;;;54.57;;
31808;SDS011;18379;48.208;-1.518;2023-04-03T02:00:41;59.00;;;54.30;;
31808;SDS011;18379;48.208;-1.518;2023-04-03T02:05:41;59.07;;;53.97;;
31808;SDS011;18379;48.208;-1.518;2023-04-03T02:10:42;59.23;;;54.27;;
31808;SDS011;18379;48.208;-1.518;2023-04-03T02:15:43;59.70;;;54.50;;
31808;SDS011;18379;48.208;-1.518;2023-04-03T02:20:46;59.20;;;54.00;;
31808;SDS011;18379;48.208;-1.518;2023-04-03T02:25:48;58.13;;;53.33;;
31808;SDS011;18379;48.208;-1.518;2023-04-03T02:30:49;59.07;;;54.07;;
31808;SDS011;18379;48.208;-1.518;2023-04-03T02:35:56;59.73;;;54.40;;
31808;SDS011;18379;48.208;-1.518;2023-04-03T02:41:07;61.63;;;56.57;;
31808;SDS011;18379;48.208;-1.518;2023-04-03T02:46:09;57.57;;;52.97;;
31808;SDS011;18379;48.208;-1.518;2023-04-03T02:51:10;57.50;;;52.70;;
31808;SDS011;18379;48.208;-1.518;2023-04-03T02:56:11;58.13;;;53.13;;
31808;SDS011;18379;48.208;-1.518;2023-04-03T03:01:12;58.33;;;52.97;;
31808;SDS011;18379;48.208;-1.518;2023-04-03T03:06:13;56.73;;;52.47;;
31808;SDS011;18379;48.208;-1.518;2023-04-03T03:11:16;56.57;;;52.07;;
31808;SDS011;18379;48.208;-1.518;2023-04-03T03:16:17;56.80;;;52.37;;
31808;SDS011;18379;48.208;-1.518;2023-04-03T03:21:18;57.53;;;52.77;;
31808;SDS011;18379;48.208;-1.518;2023-04-03T03:26:19;57.83;;;53.13;;
31808;SDS011;18379;48.208;-1.518;2023-04-03T03:31:20;56.73;;;52.53;;
31808;SDS011;18379;48.208;-1.518;2023-04-03T03:36:21;58.03;;;53.10;;
31808;SDS011;18379;48.208;-1.518;2023-04-03T03:41:21;57.47;;;53.17;;
31808;SDS011;18379;48.208;-1.518;2023-04-03T03:46:22;59.73;;;54.87;;
31808;SDS011;18379;48.208;-1.518;2023-04-03T03:51:23;60.60;;;55.27;;
31808;SDS011;18379;48.208;-1.518;2023-04-03T03:56:24;60.43;;;54.93;;
31808;SDS011;18379;48.208;-1.518;2023-04-03T04:01:25;59.70;;;54.93;;
31808;SDS011;18379;48.208;-1.518;2023-04-03T04:06:26;59.53;;;55.00;;
31808;SDS011;18379;48.208;-1.518;2023-04-03T04:11:26;59.13;;;54.17;;
31808;SDS011;18379;48.208;-1.518;2023-04-03T04:16:27;58.47;;;53.93;;
31808;SDS011;18379;48.208;-1.518;2023-04-03T04:21:28;59.23;;;54.37;;
31808;SDS011;18379;48.208;-1.518;2023-04-03T04:26:29;58.07;;;53.30;;
31808;SDS011;18379;48.208;-1.518;2023-04-03T04:31:30;59.63;;;55.10;;
31808;SDS011;18379;48.208;-1.518;2023-04-03T04:36:31;58.97;;;54.23;;
31808;SDS011;18379;48.208;-1.518;2023-04-03T04:41:31;59.00;;;54.43;;
31808;SDS011;18379;48.208;-1.518;2023-04-03T04:46:33;59.70;;;54.67;;
31808;SDS011;18379;48.208;-1.518;2023-04-03T04:51:33;62.23;;;56.80;;
31808;SDS011;18379;48.208;-1.518;2023-04-03T04:56:34;60.27;;;55.47;;
31808;SDS011;18379;48.208;-1.518;2023-04-03T05:01:35;60.20;;;55.27;;
31808;SDS011;18379;48.208;-1.518;2023-04-03T05:06:36;60.57;;;55.83;;
31808;SDS011;18379;48.208;-1.518;2023-04-03T05:11:37;61.47;;;56.10;;
31808;SDS011;18379;48.208;-1.518;2023-04-03T05:16:37;63.47;;;57.93;;
31808;SDS011;18379;48.208;-1.518;2023-04-03T05:21:38;59.13;;;54.67;;
31808;SDS011;18379;48.208;-1.518;2023-04-03T05:26:40;61.33;;;56.17;;
31808;SDS011;18379;48.208;-1.518;2023-04-03T05:31:41;58.83;;;54.20;;
31808;SDS011;18379;48.208;-1.518;2023-04-03T05:36:42;62.47;;;57.37;;
31808;SDS011;18379;48.208;-1.518;2023-04-03T05:41:43;58.57;;;54.37;;
31808;SDS011;18379;48.208;-1.518;2023-04-03T05:46:43;59.17;;;54.57;;
31808;SDS011;18379;48.208;-1.518;2023-04-03T05:51:45;59.73;;;54.93;;
31808;SDS011;18379;48.208;-1.518;2023-04-03T05:56:46;58.83;;;54.53;;
31808;SDS011;18379;48.208;-1.518;2023-04-03T06:01:47;59.77;;;55.17;;
31808;SDS011;18379;48.208;-1.518;2023-04-03T06:06:49;60.57;;;56.07;;
31808;SDS011;18379;48.208;-1.518;2023-04-03T06:11:52;61.97;;;56.83;;
31808;SDS011;18379;48.208;-1.518;2023-04-03T06:16:53;72.33;;;66.33;;
31808;SDS011;18379;48.208;-1.518;2023-04-03T06:21:54;75.47;;;69.10;;
31808;SDS011;18379;48.208;-1.518;2023-04-03T06:26:55;78.60;;;71.73;;
31808;SDS011;18379;48.208;-1.518;2023-04-03T06:31:57;75.43;;;69.00;;
31808;SDS011;18379;48.208;-1.518;2023-04-03T06:36:58;78.60;;;71.97;;
31808;SDS011;18379;48.208;-1.518;2023-04-03T06:41:58;77.80;;;71.23;;
31808;SDS011;18379;48.208;-1.518;2023-04-03T06:47:00;79.87;;;72.63;;
31808;SDS011;18379;48.208;-1.518;2023-04-03T06:52:01;79.00;;;72.23;;
31808;SDS011;18379;48.208;-1.518;2023-04-03T06:57:02;63.33;;;58.60;;
31808;SDS011;18379;48.208;-1.518;2023-04-03T07:02:03;64.30;;;58.93;;
31808;SDS011;18379;48.208;-1.518;2023-04-03T07:07:04;64.50;;;59.20;;
31808;SDS011;18379;48.208;-1.518;2023-04-03T07:12:06;63.27;;;58.20;;
31808;SDS011;18379;48.208;-1.518;2023-04-03T07:17:08;63.53;;;58.50;;
31808;SDS011;18379;48.208;-1.518;2023-04-03T07:22:09;62.03;;;57.27;;
31808;SDS011;18379;48.208;-1.518;2023-04-03T07:27:11;61.53;;;56.80;;
31808;SDS011;18379;48.208;-1.518;2023-04-03T07:32:12;61.43;;;56.37;;
31808;SDS011;18379;48.208;-1.518;2023-04-03T07:37:13;60.93;;;56.23;;
31808;SDS011;18379;48.208;-1.518;2023-04-03T07:42:14;60.33;;;55.73;;
31808;SDS011;18379;48.208;-1.518;2023-04-03T07:47:15;61.53;;;56.73;;
31808;SDS011;18379;48.208;-1.518;2023-04-03T07:52:18;63.53;;;58.20;;
31808;SDS011;18379;48.208;-1.518;2023-04-03T07:57:18;62.93;;;57.60;;
31808;SDS011;18379;48.208;-1.518;2023-04-03T08:02:19;61.53;;;56.87;;
31808;SDS011;18379;48.208;-1.518;2023-04-03T08:07:23;64.23;;;59.10;;
31808;SDS011;18379;48.208;-1.518;2023-04-03T08:12:25;66.97;;;61.33;;
31808;SDS011;18379;48.208;-1.518;2023-04-03T08:17:28;65.97;;;60.40;;
31808;SDS011;18379;48.208;-1.518;2023-04-03T08:22:29;64.97;;;59.60;;
31808;SDS011;18379;48.208;-1.518;2023-04-03T08:27:30;68.40;;;62.77;;
31808;SDS011;18379;48.208;-1.518;2023-04-03T08:32:32;66.03;;;60.63;;
31808;SDS011;18379;48.208;-1.518;2023-04-03T08:37:35;66.33;;;60.73;;
31808;SDS011;18379;48.208;-1.518;2023-04-03T08:48:00;69.03;;;63.30;;
31808;SDS011;18379;48.208;-1.518;2023-04-03T08:53:23;66.27;;;60.73;;
31808;SDS011;18379;48.208;-1.518;2023-04-03T08:58:29;67.90;;;62.10;;
31808;SDS011;18379;48.208;-1.518;2023-04-03T09:03:47;65.23;;;59.57;;
31808;SDS011;18379;48.208;-1.518;2023-04-03T09:24:45;64.13;;;58.67;;
31808;SDS011;18379;48.208;-1.518;2023-04-03T09:29:49;62.80;;;57.67;;
31808;SDS011;18379;48.208;-1.518;2023-04-03T09:35:01;65.90;;;60.57;;
31808;SDS011;18379;48.208;-1.518;2023-04-03T09:40:04;68.30;;;62.53;;
31808;SDS011;18379;48.208;-1.518;2023-04-03T09:45:20;69.33;;;63.37;;
31808;SDS011;18379;48.208;-1.518;2023-04-03T09:50:27;68.37;;;62.47;;
31808;SDS011;18379;48.208;-1.518;2023-04-03T09:55:29;68.10;;;62.33;;
31808;SDS011;18379;48.208;-1.518;2023-04-03T10:00:34;74.00;;;67.73;;
31808;SDS011;18379;48.208;-1.518;2023-04-03T10:05:38;68.33;;;62.63;;
31808;SDS011;18379;48.208;-1.518;2023-04-03T10:10:41;67.73;;;62.03;;
31808;SDS011;18379;48.208;-1.518;2023-04-03T10:15:44;67.30;;;61.60;;
31808;SDS011;18379;48.208;-1.518;2023-04-03T10:20:49;66.37;;;60.70;;
31808;SDS011;18379;48.208;-1.518;2023-04-03T10:31:34;68.80;;;62.93;;
31808;SDS011;18379;48.208;-1.518;2023-04-03T10:37:03;69.27;;;63.33;;
31808;SDS011;18379;48.208;-1.518;2023-04-03T10:47:09;68.93;;;63.10;;
31808;SDS011;18379;48.208;-1.518;2023-04-03T10:52:37;66.37;;;60.87;;
31808;SDS011;18379;48.208;-1.518;2023-04-03T10:57:48;64.63;;;59.57;;
31808;SDS011;18379;48.208;-1.518;2023-04-03T11:02:51;65.13;;;59.73;;
31808;SDS011;18379;48.208;-1.518;2023-04-03T11:08:02;69.47;;;63.70;;
31808;SDS011;18379;48.208;-1.518;2023-04-03T11:13:19;66.37;;;60.87;;
31808;SDS011;18379;48.208;-1.518;2023-04-03T11:18:39;68.93;;;63.23;;
31808;SDS011;18379;48.208;-1.518;2023-04-03T11:23:49;65.90;;;60.40;;
31808;SDS011;18379;48.208;-1.518;2023-04-03T11:28:52;66.63;;;61.17;;
31808;SDS011;18379;48.208;-1.518;2023-04-03T11:39:52;66.83;;;61.33;;
31808;SDS011;18379;48.208;-1.518;2023-04-03T12:00:51;66.43;;;60.97;;
31808;SDS011;18379;48.208;-1.518;2023-04-03T12:05:55;68.00;;;62.23;;
31808;SDS011;18379;48.208;-1.518;2023-04-03T12:32:06;70.10;;;64.10;;
31808;SDS011;18379;48.208;-1.518;2023-04-03T12:47:53;66.97;;;61.33;;
31808;SDS011;18379;48.208;-1.518;2023-04-03T12:58:21;72.70;;;66.30;;
31808;SDS011;18379;48.208;-1.518;2023-04-03T13:03:26;69.97;;;64.17;;
31808;SDS011;18379;48.208;-1.518;2023-04-03T13:08:28;68.90;;;62.87;;
31808;SDS011;18379;48.208;-1.518;2023-04-03T13:13:29;70.27;;;64.37;;
31808;SDS011;18379;48.208;-1.518;2023-04-03T13:18:32;70.40;;;64.30;;
31808;SDS011;18379;48.208;-1.518;2023-04-03T13:23:36;71.27;;;65.07;;
31808;SDS011;18379;48.208;-1.518;2023-04-03T13:28:40;75.67;;;69.10;;
31808;SDS011;18379;48.208;-1.518;2023-04-03T13:33:43;68.60;;;62.50;;
31808;SDS011;18379;48.208;-1.518;2023-04-03T13:49:35;69.20;;;63.10;;
31808;SDS011;18379;48.208;-1.518;2023-04-03T13:54:40;71.70;;;65.20;;
31808;SDS011;18379;48.208;-1.518;2023-04-03T13:59:41;75.33;;;68.67;;
31808;SDS011;18379;48.208;-1.518;2023-04-03T14:09:43;70.50;;;64.30;;
31808;SDS011;18379;48.208;-1.518;2023-04-03T14:14:44;69.17;;;63.00;;
31808;SDS011;18379;48.208;-1.518;2023-04-03T14:19:46;69.20;;;63.20;;
31808;SDS011;18379;48.208;-1.518;2023-04-03T14:24:49;69.27;;;63.13;;
31808;SDS011;18379;48.208;-1.518;2023-04-03T14:29:52;68.40;;;62.37;;
31808;SDS011;18379;48.208;-1.518;2023-04-03T14:34:53;72.83;;;66.20;;
31808;SDS011;18379;48.208;-1.518;2023-04-03T14:39:55;73.93;;;67.17;;
31808;SDS011;18379;48.208;-1.518;2023-04-03T14:44:58;72.87;;;66.23;;
31808;SDS011;18379;48.208;-1.518;2023-04-03T14:50:00;76.03;;;69.13;;
31808;SDS011;18379;48.208;-1.518;2023-04-03T14:55:03;75.97;;;68.97;;
31808;SDS011;18379;48.208;-1.518;2023-04-03T15:00:11;75.53;;;68.63;;
31808;SDS011;18379;48.208;-1.518;2023-04-03T15:05:17;72.53;;;65.83;;
31808;SDS011;18379;48.208;-1.518;2023-04-03T15:10:21;71.40;;;64.90;;
31808;SDS011;18379;48.208;-1.518;2023-04-03T15:15:27;71.27;;;64.77;;
31808;SDS011;18379;48.208;-1.518;2023-04-03T15:20:29;74.90;;;68.00;;
31808;SDS011;18379;48.208;-1.518;2023-04-03T15:25:31;76.00;;;69.10;;
31808;SDS011;18379;48.208;-1.518;2023-04-03T15:30:32;74.70;;;67.80;;
31808;SDS011;18379;48.208;-1.518;2023-04-03T15:35:39;78.40;;;71.03;;
31808;SDS011;18379;48.208;-1.518;2023-04-03T15:40:40;79.83;;;72.57;;
31808;SDS011;18379;48.208;-1.518;2023-04-03T15:45:42;73.90;;;67.20;;
31808;SDS011;18379;48.208;-1.518;2023-04-03T15:50:44;71.83;;;65.13;;
31808;SDS011;18379;48.208;-1.518;2023-04-03T15:55:45;76.63;;;69.10;;
31808;SDS011;18379;48.208;-1.518;2023-04-03T16:00:46;73.03;;;66.23;;
31808;SDS011;18379;48.208;-1.518;2023-04-03T16:05:47;72.43;;;65.63;;
31808;SDS011;18379;48.208;-1.518;2023-04-03T16:10:48;73.27;;;66.50;;
31808;SDS011;18379;48.208;-1.518;2023-04-03T16:15:49;72.53;;;65.77;;
31808;SDS011;18379;48.208;-1.518;2023-04-03T16:20:49;70.33;;;63.93;;
31808;SDS011;18379;48.208;-1.518;2023-04-03T16:25:50;69.90;;;63.40;;
31808;SDS011;18379;48.208;-1.518;2023-04-03T16:30:54;69.37;;;63.07;;
31808;SDS011;18379;48.208;-1.518;2023-04-03T16:35:55;72.47;;;65.87;;
31808;SDS011;18379;48.208;-1.518;2023-04-03T16:40:56;74.13;;;67.23;;
31808;SDS011;18379;48.208;-1.518;2023-04-03T16:45:59;72.63;;;66.13;;
31808;SDS011;18379;48.208;-1.518;2023-04-03T16:51:02;73.37;;;66.70;;
31808;SDS011;18379;48.208;-1.518;2023-04-03T16:56:03;72.60;;;66.00;;
31808;SDS011;18379;48.208;-1.518;2023-04-03T17:01:08;72.60;;;65.97;;
31808;SDS011;18379;48.208;-1.518;2023-04-03T17:06:20;72.43;;;65.73;;
31808;SDS011;18379;48.208;-1.518;2023-04-03T17:11:26;72.93;;;66.43;;
31808;SDS011;18379;48.208;-1.518;2023-04-03T17:16:28;72.47;;;65.97;;
31808;SDS011;18379;48.208;-1.518;2023-04-03T17:21:31;74.67;;;67.93;;
31808;SDS011;18379;48.208;-1.518;2023-04-03T17:26:34;73.40;;;66.80;;
31808;SDS011;18379;48.208;-1.518;2023-04-03T17:31:36;73.37;;;66.67;;
31808;SDS011;18379;48.208;-1.518;2023-04-03T17:36:37;73.53;;;66.83;;
31808;SDS011;18379;48.208;-1.518;2023-04-03T17:41:39;74.77;;;68.03;;
31808;SDS011;18379;48.208;-1.518;2023-04-03T17:46:40;70.97;;;64.77;;
31808;SDS011;18379;48.208;-1.518;2023-04-03T17:51:41;70.07;;;64.07;;
31808;SDS011;18379;48.208;-1.518;2023-04-03T17:56:41;75.00;;;68.10;;
31808;SDS011;18379;48.208;-1.518;2023-04-03T18:01:47;74.67;;;67.67;;
31808;SDS011;18379;48.208;-1.518;2023-04-03T18:06:48;72.77;;;66.27;;
31808;SDS011;18379;48.208;-1.518;2023-04-03T18:11:52;70.47;;;64.23;;
31808;SDS011;18379;48.208;-1.518;2023-04-03T18:16:53;71.37;;;65.23;;
31808;SDS011;18379;48.208;-1.518;2023-04-03T18:21:57;71.47;;;65.23;;
31808;SDS011;18379;48.208;-1.518;2023-04-03T18:27:04;74.93;;;68.23;;
31808;SDS011;18379;48.208;-1.518;2023-04-03T18:32:09;72.70;;;66.40;;
31808;SDS011;18379;48.208;-1.518;2023-04-03T18:37:13;75.00;;;68.40;;
31808;SDS011;18379;48.208;-1.518;2023-04-03T18:42:16;74.97;;;68.43;;
31808;SDS011;18379;48.208;-1.518;2023-04-03T18:47:20;72.70;;;66.17;;
31808;SDS011;18379;48.208;-1.518;2023-04-03T18:52:21;71.37;;;65.17;;
31808;SDS011;18379;48.208;-1.518;2023-04-03T18:57:24;69.93;;;63.83;;
31808;SDS011;18379;48.208;-1.518;2023-04-03T19:02:28;71.27;;;64.97;;
31808;SDS011;18379;48.208;-1.518;2023-04-03T19:07:29;73.33;;;66.87;;
31808;SDS011;18379;48.208;-1.518;2023-04-03T19:12:31;74.87;;;68.07;;
31808;SDS011;18379;48.208;-1.518;2023-04-03T19:17:32;77.77;;;70.40;;
31808;SDS011;18379;48.208;-1.518;2023-04-03T19:22:32;76.03;;;69.37;;
31808;SDS011;18379;48.208;-1.518;2023-04-03T19:27:34;75.73;;;68.77;;
31808;SDS011;18379;48.208;-1.518;2023-04-03T19:32:35;75.40;;;68.67;;
31808;SDS011;18379;48.208;-1.518;2023-04-03T19:37:36;77.30;;;70.40;;
31808;SDS011;18379;48.208;-1.518;2023-04-03T19:42:37;75.60;;;69.00;;
31808;SDS011;18379;48.208;-1.518;2023-04-03T19:47:42;74.90;;;68.17;;
31808;SDS011;18379;48.208;-1.518;2023-04-03T19:52:44;75.43;;;68.53;;
31808;SDS011;18379;48.208;-1.518;2023-04-03T19:57:45;75.57;;;68.60;;
31808;SDS011;18379;48.208;-1.518;2023-04-03T20:02:46;74.07;;;67.47;;
31808;SDS011;18379;48.208;-1.518;2023-04-03T20:07:46;77.00;;;70.13;;
31808;SDS011;18379;48.208;-1.518;2023-04-03T20:12:47;71.73;;;65.47;;
31808;SDS011;18379;48.208;-1.518;2023-04-03T20:17:49;71.10;;;64.70;;
31808;SDS011;18379;48.208;-1.518;2023-04-03T20:22:50;71.97;;;65.33;;
31808;SDS011;18379;48.208;-1.518;2023-04-03T20:27:52;71.80;;;65.37;;
31808;SDS011;18379;48.208;-1.518;2023-04-03T20:32:53;71.03;;;64.63;;
31808;SDS011;18379;48.208;-1.518;2023-04-03T20:37:55;73.03;;;66.40;;
31808;SDS011;18379;48.208;-1.518;2023-04-03T20:42:56;75.87;;;68.57;;
31808;SDS011;18379;48.208;-1.518;2023-04-03T20:47:58;72.87;;;66.10;;
31808;SDS011;18379;48.208;-1.518;2023-04-03T20:52:59;75.80;;;68.27;;
31808;SDS011;18379;48.208;-1.518;2023-04-03T20:58:01;73.33;;;66.77;;
31808;SDS011;18379;48.208;-1.518;2023-04-03T21:03:02;75.93;;;68.57;;
31808;SDS011;18379;48.208;-1.518;2023-04-03T21:19:20;68.60;;;62.63;;
31808;SDS011;18379;48.208;-1.518;2023-04-03T21:24:21;71.77;;;65.27;;
31808;SDS011;18379;48.208;-1.518;2023-04-03T21:29:22;70.93;;;64.63;;
31808;SDS011;18379;48.208;-1.518;2023-04-03T21:34:24;69.17;;;62.97;;
31808;SDS011;18379;48.208;-1.518;2023-04-03T21:39:26;68.47;;;62.43;;
31808;SDS011;18379;48.208;-1.518;2023-04-03T21:44:28;68.80;;;62.80;;
31808;SDS011;18379;48.208;-1.518;2023-04-03T21:49:29;70.27;;;64.10;;
31808;SDS011;18379;48.208;-1.518;2023-04-03T21:54:30;73.00;;;66.10;;
31808;SDS011;18379;48.208;-1.518;2023-04-03T21:59:31;84.40;;;75.10;;
31808;SDS011;18379;48.208;-1.518;2023-04-03T22:04:31;73.77;;;67.03;;
31808;SDS011;18379;48.208;-1.518;2023-04-03T22:09:32;72.17;;;65.77;;
31808;SDS011;18379;48.208;-1.518;2023-04-03T22:14:33;72.57;;;65.87;;
31808;SDS011;18379;48.208;-1.518;2023-04-03T22:19:34;75.30;;;68.43;;
31808;SDS011;18379;48.208;-1.518;2023-04-03T22:24:35;73.50;;;66.87;;
31808;SDS011;18379;48.208;-1.518;2023-04-03T22:29:36;70.97;;;64.70;;
31808;SDS011;18379;48.208;-1.518;2023-04-03T22:34:36;73.60;;;66.60;;
31808;SDS011;18379;48.208;-1.518;2023-04-03T22:39:38;70.00;;;64.03;;
31808;SDS011;18379;48.208;-1.518;2023-04-03T22:44:39;69.30;;;63.53;;
31808;SDS011;18379;48.208;-1.518;2023-04-03T22:49:40;70.77;;;64.77;;
31808;SDS011;18379;48.208;-1.518;2023-04-03T22:54:40;71.57;;;65.37;;
31808;SDS011;18379;48.208;-1.518;2023-04-03T22:59:41;72.20;;;65.80;;
31808;SDS011;18379;48.208;-1.518;2023-04-03T23:04:42;70.13;;;64.07;;
31808;SDS011;18379;48.208;-1.518;2023-04-03T23:09:43;69.33;;;63.43;;
31808;SDS011;18379;48.208;-1.518;2023-04-03T23:14:43;67.87;;;62.27;;
31808;SDS011;18379;48.208;-1.518;2023-04-03T23:19:44;69.00;;;63.00;;
31808;SDS011;18379;48.208;-1.518;2023-04-03T23:24:45;68.00;;;62.23;;
31808;SDS011;18379;48.208;-1.518;2023-04-03T23:29:46;68.73;;;62.80;;
31808;SDS011;18379;48.208;-1.518;2023-04-03T23:34:47;69.27;;;63.53;;
31808;SDS011;18379;48.208;-1.518;2023-04-03T23:39:48;62.20;;;57.40;;
31808;SDS011;18379;48.208;-1.518;2023-04-03T23:44:49;61.67;;;57.03;;
31808;SDS011;18379;48.208;-1.518;2023-04-03T23:49:50;61.37;;;56.73;;
31808;SDS011;18379;48.208;-1.518;2023-04-03T23:54:51;61.73;;;57.03;;
31808;SDS011;18379;48.208;-1.518;2023-04-03T23:59:51;60.50;;;56.00;;
